Time;durP1;ratioP1;P1;durP2;ratioP2;P2;SDS_P1;SDS_P2;PMS_P1;PMS_P2;Temp;Humidity;BMP_temperature;BMP_pressure;BME280_temperature;BME280_humidity;BME280_pressure;Samples;Min_cycle;Max_cycle;Signal;HPM_P1;HPM_P2
2021/12/05 00:23:47;;;;;;;141.82;89.07;;;;;;;6.80;63.48;94331.19;4967315;23;20467;-80
2021/12/05 00:26:17;;;;;;;138.38;87.00;;;;;;;6.77;62.69;94339.38;4942998;29;20410;-80
2021/12/05 00:31:34;;;;;;;174.35;99.60;;;;;;;6.54;62.91;94321.22;4917408;29;20548;-81
2021/12/05 00:42:23;;;;;;;147.27;87.28;;;;;;;6.50;63.11;94336.34;4908988;23;20439;-81
2021/12/05 01:13:57;;;;;;;107.43;63.00;;;;;;;6.27;62.63;94300.88;4898563;29;20431;-78
2021/12/05 01:16:23;;;;;;;207.93;118.60;;;;;;;6.30;62.41;94302.25;4870652;29;20407;-80
2021/12/05 01:18:48;;;;;;;267.50;142.48;;;;;;;6.32;62.19;94295.06;4864749;29;20496;-80
2021/12/05 01:21:16;;;;;;;198.97;108.27;;;;;;;6.23;63.97;94292.00;4864527;29;20435;-80
2021/12/05 01:26:22;;;;;;;235.75;130.25;;;;;;;6.17;63.81;94284.31;4890114;29;20770;-80
2021/12/05 02:41:49;;;;;;;55.25;32.45;;;;;;;7.25;64.55;94286.78;4908126;29;20107;-80
2021/12/05 02:44:24;;;;;;;52.42;31.77;;;;;;;7.11;64.23;94277.66;4915008;23;20056;-80
2021/12/05 02:47:00;;;;;;;50.88;28.75;;;;;;;7.02;65.24;94282.38;4906865;29;20036;-80
2021/12/05 02:49:26;;;;;;;47.00;26.83;;;;;;;6.89;65.34;94280.00;4890474;29;20036;-80
2021/12/05 02:51:56;;;;;;;42.13;24.42;;;;;;;6.84;65.61;94285.03;4886642;29;20045;-79
2021/12/05 02:54:23;;;;;;;44.47;26.00;;;;;;;6.76;66.21;94283.56;4888483;29;20074;-80
2021/12/05 02:56:50;;;;;;;48.08;23.77;;;;;;;6.73;66.37;94272.88;4889410;29;20036;-80
2021/12/05 02:59:23;;;;;;;53.65;33.42;;;;;;;6.81;65.85;94273.34;4898640;23;21052;-80
2021/12/05 03:01:54;;;;;;;49.95;28.05;;;;;;;6.82;66.22;94266.38;4914466;29;20044;-80
2021/12/05 03:04:23;;;;;;;52.78;27.02;;;;;;;6.79;66.61;94277.16;4898956;29;20044;-80
2021/12/05 03:06:51;;;;;;;;;;;;;;;6.67;66.60;94273.75;4899496;29;20076;-79
2021/12/05 03:09:17;;;;;;;;;;;;;;;6.61;67.34;94271.03;4898640;29;20002;-80
2021/12/05 03:11:42;;;;;;;;;;;;;;;6.57;67.11;94274.28;4882374;29;19959;-80
2021/12/05 03:14:07;;;;;;;;;;;;;;;6.57;67.82;94279.44;4954262;23;19923;-79
2021/12/05 03:16:33;;;;;;;;;;;;;;;6.57;67.58;94269.91;4906921;29;19927;-79
2021/12/05 03:18:58;;;;;;;;;;;;;;;6.55;67.37;94269.34;4894775;29;19920;-79
2021/12/05 03:21:33;;;;;;;;;;;;;;;6.55;67.54;94269.34;4894026;29;20054;-79
2021/12/05 03:23:58;;;;;;;;;;;;;;;6.53;67.29;94268.78;4900070;29;19926;-79
2021/12/05 03:26:25;;;;;;;;;;;;;;;6.56;67.91;94264.97;4888972;29;19987;-79
2021/12/05 03:28:51;;;;;;;;;;;;;;;6.55;67.95;94261.59;4889495;29;19971;-79
2021/12/05 03:31:31;;;;;;;;;;;;;;;6.55;67.65;94266.75;4886228;29;19975;-77
2021/12/05 03:33:57;;;;;;;;;;;;;;;6.51;68.42;94263.06;4890899;29;19923;-79
2021/12/05 03:36:26;;;;;;;;;;;;;;;6.46;67.85;94267.28;4892473;29;19926;-78
2021/12/05 03:38:51;;;;;;;;;;;;;;;6.49;68.59;94262.44;4897402;29;19923;-78
2021/12/05 03:41:16;;;;;;;;;;;;;;;6.38;68.53;94258.06;4892972;29;19923;-79
2021/12/05 03:43:42;;;;;;;;;;;;;;;6.43;68.96;94257.38;4891942;29;20356;-79
2021/12/05 03:46:08;;;;;;;;;;;;;;;6.42;68.35;94264.34;4889303;29;19920;-79
2021/12/05 03:48:42;;;;;;;;;;;;;;;6.41;68.38;94264.56;4891663;29;19971;-79
2021/12/05 03:51:08;;;;;;;;;;;;;;;6.41;68.30;94260.19;4894829;29;19920;-79
2021/12/05 03:53:33;;;;;;;;;;;;;;;6.42;68.50;94263.56;4891980;29;19919;-79
2021/12/05 03:55:58;;;;;;;;;;;;;;;6.40;68.43;94261.19;4890962;29;20370;-78
2021/12/05 03:58:24;;;;;;;;;;;;;;;6.38;68.21;94259.84;4888842;29;19927;-79
2021/12/05 04:00:50;;;;;;;;;;;;;;;6.35;68.32;94266.25;4891846;29;19919;-79
2021/12/05 04:03:16;;;;;;;;;;;;;;;6.30;68.16;94266.09;4891507;29;19933;-79
2021/12/05 04:05:41;;;;;;;;;;;;;;;6.27;68.21;94269.13;4892615;29;20322;-78
2021/12/05 04:08:07;;;;;;;;;;;;;;;6.27;68.63;94272.47;4890014;29;19923;-80
2021/12/05 04:10:34;;;;;;;;;;;;;;;6.27;68.54;94271.69;4892133;29;19919;-78
2021/12/05 04:12:59;;;;;;;;;;;;;;;6.32;68.10;94277.78;4899687;29;19975;-79
2021/12/05 04:15:24;;;;;;;;;;;;;;;6.35;68.69;94275.78;4883007;29;19919;-79
2021/12/05 04:17:50;;;;;;;;;;;;;;;6.36;68.59;94272.97;4905809;29;19930;-79
2021/12/05 04:20:15;;;;;;;;;;;;;;;6.40;67.86;94268.94;4891163;29;20388;-80
2021/12/05 04:22:40;;;;;;;;;;;;;;;6.39;67.98;94267.38;4891993;29;19924;-79
2021/12/05 04:25:09;;;;;;;;;;;;;;;6.29;67.98;94277.44;4891209;29;19923;-79
2021/12/05 04:27:38;;;;;;;123.68;64.75;;;;;;;6.32;67.84;94276.97;4898371;29;19920;-79
2021/12/05 04:30:05;;;;;;;101.18;56.33;;;;;;;6.32;67.90;94287.31;4892273;23;20056;-79
2021/12/05 04:32:30;;;;;;;113.78;65.72;;;;;;;6.41;68.06;94280.84;4936378;29;20567;-78
2021/12/05 04:34:56;;;;;;;110.32;64.95;;;;;;;6.46;67.42;94277.59;4926735;29;20043;-78
2021/12/05 04:37:33;;;;;;;118.22;79.68;;;;;;;6.65;66.99;94280.94;4925429;23;20444;-78
2021/12/05 04:40:14;;;;;;;107.75;74.05;;;;;;;6.84;66.70;94282.47;4908850;29;20464;-79
2021/12/05 04:42:46;;;;;;;109.50;64.22;;;;;;;6.92;66.03;94284.72;4909100;29;20115;-79
2021/12/05 04:45:15;;;;;;;100.53;63.33;;;;;;;6.96;65.91;94288.44;4906205;29;20071;-79
2021/12/05 04:47:40;;;;;;;87.00;53.08;;;;;;;6.96;65.79;94287.63;4943480;23;20342;-80
2021/12/05 04:50:06;;;;;;;80.47;49.72;;;;;;;6.92;66.68;94295.06;4935780;29;20223;-79
2021/12/05 04:52:32;;;;;;;79.47;47.67;;;;;;;6.88;66.65;94297.31;4936276;29;20032;-80
2021/12/05 04:54:57;;;;;;;80.43;46.95;;;;;;;6.88;66.26;94293.94;4931231;29;20039;-79
2021/12/05 04:57:23;;;;;;;66.57;40.80;;;;;;;6.92;66.61;94295.06;4913650;29;20419;-80
2021/12/05 05:02:18;;;;;;;63.67;37.50;;;;;;;6.95;66.53;94302.34;4998806;23;20524;-80
2021/12/05 05:04:48;;;;;;;70.97;38.85;;;;;;;6.98;66.53;94316.63;4914506;29;20036;-78
2021/12/05 05:07:21;;;;;;;63.83;38.47;;;;;;;6.95;66.60;94311.91;4899577;29;20055;-78
2021/12/05 05:09:46;;;;;;;;;;;;;;;6.95;67.04;94304.16;4881288;29;20115;-80
2021/12/05 05:14:50;;;;;;;63.20;35.42;;;;;;;6.92;67.50;94310.56;5002183;23;20079;-80
2021/12/05 05:17:16;;;;;;;83.50;43.15;;;;;;;6.96;67.11;94309.09;4934568;29;20455;-79
2021/12/05 05:19:48;;;;;;;72.40;41.22;;;;;;;6.98;67.03;94314.03;4928671;29;20099;-80
2021/12/05 05:44:12;;;;;;;;;;;;;;;6.97;66.69;94313.25;4903968;29;20051;-80
2021/12/05 05:46:55;;;;;;;;;;;;;;;6.96;67.61;94314.28;4916372;29;19930;-80
2021/12/05 05:49:47;;;;;;;66.93;33.38;;;;;;;6.96;67.58;94314.28;4923356;29;19954;-80
2021/12/05 05:52:13;;;;;;;50.97;27.05;;;;;;;6.97;67.96;94313.25;4972800;23;20464;-81
2021/12/05 05:57:20;;;;;;;54.75;30.00;;;;;;;6.89;67.68;94298.88;5089009;23;20095;-81
2021/12/05 06:00:07;;;;;;;57.15;30.15;;;;;;;6.86;67.89;94288.19;4883888;29;20045;-80
2021/12/05 06:05:16;;;;;;;81.50;47.33;;;;;;;7.09;67.74;94311.50;4859865;29;20072;-80
2021/12/05 06:07:44;;;;;;;145.88;88.40;;;;;;;7.16;67.09;94316.59;4852651;29;20041;-81
2021/12/05 06:10:09;;;;;;;;;;;;;;;7.19;66.85;94316.91;4881660;29;20036;-81
2021/12/05 06:12:35;;;;;;;129.00;77.10;;;;;;;7.29;66.51;94318.16;4881729;29;19975;-80
2021/12/05 06:15:01;;;;;;;100.55;60.25;;;;;;;7.35;66.85;94325.03;4880618;29;20635;-81
2021/12/05 06:17:26;;;;;;;112.70;64.63;;;;;;;7.45;66.00;94333.03;4864539;29;20477;-81
2021/12/05 06:19:53;;;;;;;131.38;79.03;;;;;;;7.45;66.18;94333.81;4880107;29;20037;-82
2021/12/05 06:22:19;;;;;;;148.60;85.32;;;;;;;7.46;66.33;94334.59;4881036;29;20033;-82
2021/12/05 06:24:44;;;;;;;152.48;81.18;;;;;;;7.46;66.50;94339.75;4848110;29;20039;-81
2021/12/05 06:27:10;;;;;;;215.90;121.13;;;;;;;7.59;66.79;94338.78;4847655;29;20135;-78
2021/12/05 06:29:37;;;;;;;230.43;133.85;;;;;;;7.76;65.87;94348.22;4877133;29;20029;-82
2021/12/05 06:32:31;;;;;;;248.88;153.02;;;;;;;7.88;66.00;94352.63;4879946;29;20068;-78
2021/12/05 06:37:46;;;;;;;90.05;55.00;;;;;;;8.13;64.58;94366.09;4863434;29;20040;-78
2021/12/05 06:42:52;;;;;;;50.25;29.45;;;;;;;8.21;63.08;94365.75;4846625;29;20120;-78
2021/12/05 06:48:22;;;;;;;49.85;29.42;;;;;;;8.05;64.12;94384.56;4853093;29;20038;-79
2021/12/05 06:50:48;;;;;;;49.35;29.13;;;;;;;8.03;64.11;94386.59;4848490;29;20048;-80
2021/12/05 06:53:14;;;;;;;55.63;30.63;;;;;;;7.93;64.30;94391.56;4871585;29;20065;-84
2021/12/05 06:55:39;;;;;;;56.15;32.15;;;;;;;7.90;64.71;94397.19;4877754;29;20109;-78
2021/12/05 06:58:05;;;;;;;54.45;32.58;;;;;;;7.83;65.15;94395.50;4879196;29;20066;-79
2021/12/05 07:00:38;;;;;;;62.75;31.13;;;;;;;7.85;64.80;94394.50;4850852;29;20048;-79
2021/12/05 07:03:03;;;;;;;62.28;32.58;;;;;;;7.83;65.15;94395.50;4834062;29;20125;-80
2021/12/05 07:08:31;;;;;;;60.97;32.42;;;;;;;7.93;64.88;94391.56;4837401;29;20049;-79
2021/12/05 07:11:03;;;;;;;60.85;35.65;;;;;;;7.93;64.61;94400.09;4866698;29;20120;-79
2021/12/05 07:22:00;;;;;;;;;;;;;;;8.07;65.01;94392.91;4859117;29;20135;-79
2021/12/05 07:45:20;;;;;;;61.85;33.38;;;;;;;8.85;62.29;94363.94;5030684;23;20054;-81
2021/12/05 07:47:49;;;;;;;59.58;38.70;;;;;;;9.03;61.99;94366.34;4923965;29;20407;-81
2021/12/05 07:50:15;;;;;;;65.40;36.42;;;;;;;9.18;61.02;94352.06;5072652;23;20039;-81
2021/12/05 07:52:44;;;;;;;66.23;41.53;;;;;;;9.25;60.73;94373.44;4914478;29;20425;-79
2021/12/05 07:55:23;;;;;;;71.78;47.67;;;;;;;9.47;60.60;94365.78;4876778;29;20423;-79
2021/12/05 08:00:38;;;;;;;55.55;31.77;;;;;;;9.41;60.58;94371.88;4878733;29;20076;-79
2021/12/05 08:16:48;;;;;;;41.13;24.25;;;;;;;9.16;60.86;94380.03;4878655;29;20048;-79
2021/12/05 08:19:14;;;;;;;38.45;21.30;;;;;;;9.24;61.84;94382.25;4865086;29;20080;-81
2021/12/05 08:21:40;;;;;;;39.08;21.23;;;;;;;9.40;61.19;94394.44;4869896;29;20111;-80
2021/12/05 08:24:05;;;;;;;28.40;19.88;;;;;;;9.43;61.25;94391.38;4865349;29;20044;-81
2021/12/05 08:26:33;;;;;;;30.85;19.95;;;;;;;9.54;60.78;94380.16;4893142;29;20055;-80
2021/12/05 08:31:46;;;;;;;28.70;17.15;;;;;;;9.58;59.04;94383.06;4893545;29;20040;-80
2021/12/05 09:52:38;;;;;;;41.20;25.13;;;;;;;11.27;55.46;94269.69;4878437;29;20113;-79
2021/12/05 10:03:09;;;;;;;39.80;22.92;;;;;;;10.85;55.40;94246.19;4872005;29;20044;-80
2021/12/05 10:16:29;;;;;;;31.38;19.25;;;;;;;10.60;56.07;94249.34;4881123;29;20498;-80
2021/12/05 10:38:41;;;;;;;41.90;20.15;;;;;;;10.76;55.75;94225.84;4827925;29;20036;-80
2021/12/05 10:43:39;;;;;;;28.58;16.77;;;;;;;10.50;56.43;94208.41;4880588;29;20104;-82
2021/12/05 10:46:13;;;;;;;31.50;17.58;;;;;;;10.45;55.98;94210.97;4867561;29;20097;-82
2021/12/05 10:48:53;;;;;;;30.30;16.08;;;;;;;10.49;55.42;94201.66;4868084;29;20041;-82
2021/12/05 10:51:27;;;;;;;27.95;19.08;;;;;;;10.38;56.23;94199.97;4866000;29;20689;-82
2021/12/05 10:53:58;;;;;;;29.38;18.45;;;;;;;10.44;56.65;94199.00;4883036;29;20096;-81
2021/12/05 10:56:30;;;;;;;32.15;19.58;;;;;;;10.46;56.45;94197.72;4864917;29;20138;-81
2021/12/05 10:59:13;;;;;;;32.25;21.33;;;;;;;10.49;56.41;94188.66;4883734;29;20029;-82
2021/12/05 11:01:43;;;;;;;35.47;21.98;;;;;;;10.53;56.71;94181.94;4882334;29;20041;-82
2021/12/05 11:04:08;;;;;;;42.78;23.05;;;;;;;10.55;57.19;94174.66;4937399;23;20044;-81
2021/12/05 11:06:56;;;;;;;35.28;20.98;;;;;;;10.64;56.84;94169.81;4920833;29;20646;-80
2021/12/05 11:09:27;;;;;;;33.95;21.42;;;;;;;10.68;56.63;94174.25;4903734;29;20115;-79
2021/12/05 11:11:53;;;;;;;31.77;18.52;;;;;;;10.55;57.13;94174.66;4900537;29;20625;-81
2021/12/05 11:14:25;;;;;;;22.75;15.75;;;;;;;10.51;56.71;94173.59;4904371;29;20132;-79
2021/12/05 11:17:02;;;;;;;26.23;16.40;;;;;;;10.46;57.58;94165.75;4897650;29;20036;-77
2021/12/05 11:19:48;;;;;;;29.38;16.40;;;;;;;10.19;58.02;94157.94;4911620;29;20045;-81
2021/12/05 11:22:22;;;;;;;29.85;16.77;;;;;;;10.11;57.99;94146.16;4900446;29;20033;-81
2021/12/05 11:24:51;;;;;;;27.23;15.85;;;;;;;10.05;58.35;94143.75;4935057;23;20075;-79
2021/12/05 11:27:16;;;;;;;30.27;15.98;;;;;;;10.10;58.74;94147.19;4928323;29;20039;-81
2021/12/05 11:29:50;;;;;;;26.40;15.68;;;;;;;10.20;58.52;94139.50;4927435;29;20047;-83
2021/12/05 11:32:19;;;;;;;28.58;16.17;;;;;;;10.15;58.32;94136.84;4925799;29;20064;-86
2021/12/05 11:34:45;;;;;;;31.05;15.95;;;;;;;10.04;58.81;94142.97;4895349;29;20028;-82
2021/12/05 11:37:11;;;;;;;30.00;14.00;;;;;;;9.95;58.69;94123.66;4889906;29;20040;-83
2021/12/05 11:39:36;;;;;;;23.10;14.57;;;;;;;10.02;58.16;94124.25;4891026;29;20115;-83
2021/12/05 11:42:13;;;;;;;33.30;15.35;;;;;;;10.11;57.85;94111.63;4905756;29;20119;-82
2021/12/05 11:44:40;;;;;;;32.15;17.35;;;;;;;10.12;58.81;94116.56;4922720;29;20044;-82
2021/12/05 11:47:18;;;;;;;34.00;21.08;;;;;;;10.31;58.47;94109.22;4987967;23;20455;-83
2021/12/05 11:49:43;;;;;;;38.67;18.58;;;;;;;10.28;58.40;94098.56;4883551;29;20052;-82
2021/12/05 11:52:09;;;;;;;33.08;17.27;;;;;;;10.36;57.69;94105.88;4884789;29;20040;-84
2021/12/05 11:54:43;;;;;;;29.55;16.80;;;;;;;10.26;57.63;94109.19;4886840;29;20021;-83
2021/12/05 11:57:14;;;;;;;32.15;17.63;;;;;;;10.35;57.45;94106.91;4892405;29;20434;-84
2021/12/05 11:59:47;;;;;;;27.63;16.45;;;;;;;10.40;57.87;94112.16;4888359;29;20097;-82
2021/12/05 12:02:17;;;;;;;35.78;17.13;;;;;;;10.37;57.76;94105.63;4871708;29;20101;-83
2021/12/05 12:04:59;;;;;;;29.80;20.07;;;;;;;10.39;57.98;94100.19;4887293;29;20475;-82
2021/12/05 12:07:30;;;;;;;40.58;25.30;;;;;;;10.40;58.00;94089.53;4889410;29;20080;-82
2021/12/05 12:10:04;;;;;;;30.38;18.33;;;;;;;10.40;58.26;94094.72;4905163;23;20036;-84
2021/12/05 12:12:29;;;;;;;;;;;;;;;10.39;57.60;94094.97;4907098;29;20035;-84
2021/12/05 12:14:54;;;;;;;30.77;16.20;;;;;;;10.38;57.50;94090.81;4880415;29;19916;-82
2021/12/05 12:17:20;;;;;;;24.52;15.25;;;;;;;10.41;57.68;94090.31;4870281;29;20068;-83
2021/12/05 12:19:50;;;;;;;26.15;15.27;;;;;;;10.45;57.48;94086.22;4865746;29;20029;-83
2021/12/05 12:22:19;;;;;;;31.38;19.38;;;;;;;10.63;56.45;94083.22;4895816;29;20494;-82
2021/12/05 12:24:44;;;;;;;30.75;19.52;;;;;;;10.82;56.49;94081.78;4898540;29;20418;-83
2021/12/05 12:27:12;;;;;;;29.65;17.83;;;;;;;11.11;55.24;94068.44;4863571;29;20414;-83
2021/12/05 12:29:37;;;;;;;29.43;17.33;;;;;;;11.24;54.40;94067.19;4895318;29;20509;-83
2021/12/05 12:32:12;;;;;;;28.97;17.77;;;;;;;11.27;54.28;94077.09;4890204;24;20881;-83
2021/12/05 12:34:38;;;;;;;26.88;16.45;;;;;;;11.41;53.51;94068.56;4904501;29;20402;-83
2021/12/05 12:37:05;;;;;;;28.37;15.50;;;;;;;11.46;53.39;94061.81;4890692;29;20438;-83
2021/12/05 12:39:49;;;;;;;19.85;13.15;;;;;;;11.49;52.15;94069.09;4901860;29;20493;-83
2021/12/05 12:42:30;;;;;;;18.90;13.52;;;;;;;11.64;52.20;94066.56;4904005;29;20417;-83
2021/12/05 12:45:09;;;;;;;22.97;13.57;;;;;;;11.71;52.30;94056.66;4913086;23;20497;-83
2021/12/05 12:47:40;;;;;;;24.85;14.02;;;;;;;11.48;52.89;94052.72;4908976;29;20778;-83
2021/12/05 12:50:23;;;;;;;20.73;13.40;;;;;;;11.37;52.56;94051.88;4896319;23;20402;31
2021/12/05 12:53:03;;;;;;;19.73;12.70;;;;;;;11.44;52.45;94056.88;4923909;23;20563;-83
2021/12/05 12:55:31;;;;;;;21.40;12.65;;;;;;;11.60;52.33;94055.09;4926728;29;20428;-83
2021/12/05 12:57:57;;;;;;;27.85;13.02;;;;;;;11.58;52.31;94051.97;4902677;29;20426;-83
2021/12/05 13:00:24;;;;;;;37.50;23.67;;;;;;;11.41;53.20;94052.19;4885459;29;20421;-82
2021/12/05 13:10:41;;;;;;;22.10;15.18;;;;;;;11.51;53.51;94041.00;4925378;23;20445;-84
2021/12/05 13:13:25;;;;;;;25.02;14.68;;;;;;;11.68;53.28;94036.34;4895902;29;21004;-83
2021/12/05 13:15:53;;;;;;;27.38;15.27;;;;;;;11.84;52.85;94039.81;4878413;29;20414;-83
2021/12/05 13:18:26;;;;;;;25.33;14.70;;;;;;;11.91;52.85;94030.72;4963596;23;20462;-82
2021/12/05 13:21:04;;;;;;;28.00;15.97;;;;;;;11.84;53.47;94035.38;4893148;29;20744;-82
2021/12/05 13:23:31;;;;;;;24.40;16.25;;;;;;;11.89;53.76;94039.84;4891382;29;20570;-82
2021/12/05 13:26:07;;;;;;;28.38;15.95;;;;;;;11.52;55.25;94032.16;4894637;29;20414;-82
2021/12/05 13:28:37;;;;;;;25.75;15.38;;;;;;;11.67;54.80;94035.56;4923578;23;20522;-82
2021/12/05 13:31:44;;;;;;;26.67;16.45;;;;;;;11.70;54.73;94040.25;4942519;29;20399;-82
2021/12/05 13:34:19;;;;;;;28.15;16.75;;;;;;;11.56;55.01;94034.00;4854740;29;20920;-82
2021/12/05 13:37:06;;;;;;;23.60;15.98;;;;;;;11.68;54.76;94031.94;4855828;29;20424;-82
2021/12/05 13:39:52;;;;;;;29.83;18.02;;;;;;;11.37;55.61;94040.69;4893656;29;20476;-82
2021/12/05 13:42:22;;;;;;;26.75;17.20;;;;;;;11.34;55.86;94031.56;4934221;29;20436;-81
2021/12/05 13:44:59;;;;;;;25.97;17.47;;;;;;;11.28;55.80;94043.00;4940952;29;20461;-82
2021/12/05 13:47:46;;;;;;;24.98;16.33;;;;;;;11.23;55.52;94043.00;4929399;29;20781;-82
2021/12/05 13:50:25;;;;;;;21.80;15.27;;;;;;;11.27;55.97;94032.84;4928408;29;20419;-82
2021/12/05 13:53:02;;;;;;;24.83;15.70;;;;;;;11.29;55.17;94028.97;4916782;29;20432;-82
2021/12/05 13:56:03;;;;;;;21.97;14.80;;;;;;;11.31;54.96;94032.09;4918948;29;20483;-82
2021/12/05 13:58:35;;;;;;;23.50;15.63;;;;;;;11.33;55.07;94035.22;4912090;29;20398;-81
2021/12/05 14:01:12;;;;;;;24.38;14.90;;;;;;;11.47;54.62;94026.94;4913059;29;20412;-82
2021/12/05 14:03:59;;;;;;;23.13;14.67;;;;;;;11.43;54.06;94032.66;4911865;29;20435;-83
2021/12/05 14:06:53;;;;;;;28.75;15.30;;;;;;;11.21;55.07;94042.44;4915549;29;20418;-82
2021/12/05 14:09:24;;;;;;;29.40;16.85;;;;;;;11.03;55.83;94037.69;4912188;29;20785;-83
2021/12/05 14:11:54;;;;;;;26.48;16.38;;;;;;;10.82;56.35;94036.81;4916698;29;20458;-83
2021/12/05 14:19:24;;;;;;;29.45;17.70;;;;;;;10.86;57.00;94047.47;4941523;23;20432;-82
2021/12/05 14:21:51;;;;;;;29.17;18.15;;;;;;;10.90;56.32;94043.31;4921255;29;20415;-83
2021/12/05 14:24:18;;;;;;;25.55;17.90;;;;;;;10.73;57.63;94038.28;4923005;29;20448;-83
2021/12/05 14:26:52;;;;;;;21.48;15.73;;;;;;;10.69;57.24;94042.44;4904965;29;20408;-83
2021/12/05 14:29:23;;;;;;;23.55;15.90;;;;;;;10.55;57.22;94049.09;4890074;29;20412;-83
2021/12/05 14:31:51;;;;;;;23.70;15.45;;;;;;;10.51;56.92;94043.63;4920643;29;20919;-83
2021/12/05 14:34:17;;;;;;;23.50;15.63;;;;;;;10.49;57.06;94040.50;4904485;29;20408;-83
2021/12/05 14:36:47;;;;;;;22.50;15.03;;;;;;;10.53;57.07;94041.56;4889690;29;20477;-83
2021/12/05 14:39:39;;;;;;;27.92;15.77;;;;;;;10.65;56.03;94038.78;4927856;23;20916;-83
2021/12/05 14:42:09;;;;;;;22.15;15.98;;;;;;;10.66;56.22;94038.53;4899207;29;20497;-82
2021/12/05 14:44:35;;;;;;;27.52;15.65;;;;;;;10.55;56.55;94036.88;4905987;29;20433;-81
2021/12/05 14:47:04;;;;;;;48.17;26.17;;;;;;;10.42;57.56;94035.53;4907222;29;20418;-85
2021/12/05 14:49:33;;;;;;;50.15;29.73;;;;;;;10.30;57.62;94041.91;4855871;29;20422;-82
2021/12/05 14:51:59;;;;;;;38.27;25.27;;;;;;;9.76;60.27;94052.31;4884709;29;20515;-82
2021/12/05 14:54:28;;;;;;;31.90;20.90;;;;;;;9.81;59.59;94062.75;4868611;29;20423;-82
2021/12/05 14:56:55;;;;;;;28.00;17.88;;;;;;;9.82;59.54;94061.72;4901512;29;20443;-83
2021/12/05 14:59:21;;;;;;;25.65;18.00;;;;;;;9.83;59.47;94056.28;4884892;29;20454;-83
2021/12/05 15:01:49;;;;;;;31.00;19.17;;;;;;;9.85;59.96;94056.03;4902399;29;20410;-83
2021/12/05 15:04:20;;;;;;;32.33;20.80;;;;;;;9.65;60.18;94055.84;4900474;29;20488;-83
2021/12/05 15:06:46;;;;;;;30.08;20.77;;;;;;;9.55;60.01;94056.50;4902782;29;20414;-85
2021/12/05 15:09:22;;;;;;;32.70;22.23;;;;;;;9.73;60.00;94065.78;4901028;29;20917;-83
2021/12/05 15:11:53;;;;;;;43.50;25.00;;;;;;;9.74;59.88;94065.53;4902528;29;20485;-83
2021/12/05 15:14:19;;;;;;;42.33;24.88;;;;;;;9.62;60.05;94063.09;4870880;29;20422;-83
2021/12/05 15:17:21;;;;;;;40.53;25.27;;;;;;;9.20;61.36;94060.25;4869254;29;20497;-77
2021/12/05 15:19:49;;;;;;;37.00;24.50;;;;;;;9.09;61.61;94052.59;4881427;29;20448;-79
2021/12/05 15:22:14;;;;;;;40.17;26.45;;;;;;;8.87;62.35;94062.94;4877406;29;20418;-78
2021/12/05 15:24:47;;;;;;;40.40;27.03;;;;;;;8.73;62.46;94071.06;4895589;29;20437;-78
2021/12/05 15:27:14;;;;;;;40.75;26.38;;;;;;;8.56;63.64;94074.69;4866010;29;20985;-79
2021/12/05 15:29:54;;;;;;;41.25;26.10;;;;;;;8.60;63.61;94083.56;4852164;29;20482;-79
2021/12/05 15:32:24;;;;;;;37.28;26.38;;;;;;;8.62;63.93;94078.91;4883364;29;20421;-79
2021/12/05 15:34:51;;;;;;;44.03;27.27;;;;;;;8.32;64.49;94069.66;4867281;29;20827;-81
2021/12/05 15:37:17;;;;;;;38.63;27.90;;;;;;;8.19;64.58;94069.19;4882133;29;20582;-81
2021/12/05 15:39:44;;;;;;;43.10;27.60;;;;;;;8.19;64.99;94080.31;4882724;29;20769;-81
2021/12/05 15:42:27;;;;;;;44.72;27.95;;;;;;;8.15;65.28;94081.81;4866925;29;20414;-80
2021/12/05 15:44:54;;;;;;;39.88;27.20;;;;;;;8.10;65.20;94094.66;4877219;29;20433;-80
2021/12/05 15:47:31;;;;;;;39.40;27.20;;;;;;;7.93;65.74;94092.03;4884430;29;20421;-80
2021/12/05 15:50:06;;;;;;;82.60;51.63;;;;;;;7.99;65.76;94098.91;4915541;29;20431;-79
2021/12/05 15:52:40;;;;;;;42.08;27.25;;;;;;;7.96;65.84;94107.09;4910524;29;20430;-80
2021/12/05 15:55:43;;;;;;;43.53;26.42;;;;;;;7.90;66.11;94110.63;4882736;29;20929;-81
2021/12/05 15:58:17;;;;;;;39.95;24.80;;;;;;;8.09;65.44;94111.22;4839952;29;20437;-80
2021/12/05 16:01:06;;;;;;;31.92;23.88;;;;;;;8.03;65.78;94112.16;4882520;29;20418;-81
2021/12/05 16:03:56;;;;;;;32.08;23.00;;;;;;;8.07;65.33;94119.22;4898221;29;21108;-81
2021/12/05 16:06:31;;;;;;;32.38;21.90;;;;;;;7.97;65.78;94113.06;4897730;29;20414;-78
2021/12/05 16:08:57;;;;;;;34.53;23.13;;;;;;;7.95;66.33;94126.25;4866517;29;20415;-78
2021/12/05 16:11:23;;;;;;;32.83;22.90;;;;;;;8.03;65.40;94122.50;4882388;29;20433;-79
2021/12/05 16:13:52;;;;;;;35.43;22.57;;;;;;;8.14;65.41;94124.28;4883383;29;20406;-79
2021/12/05 16:16:21;;;;;;;34.78;22.00;;;;;;;8.07;65.46;94110.66;4866769;29;20414;-79
2021/12/05 16:18:48;;;;;;;36.88;22.95;;;;;;;8.01;65.79;94130.50;4894763;29;20406;-77
2021/12/05 16:21:15;;;;;;;36.25;23.67;;;;;;;8.12;65.32;94132.25;4895398;29;20417;-77
2021/12/05 16:23:40;;;;;;;34.77;22.80;;;;;;;8.22;65.01;94126.47;4895261;29;20437;-77
2021/12/05 16:26:11;;;;;;;40.90;22.87;;;;;;;7.80;66.55;94106.03;4895241;29;20890;-77
2021/12/05 16:28:41;;;;;;;38.45;24.05;;;;;;;7.89;66.55;94113.47;4878350;29;20497;-77
2021/12/05 16:31:19;;;;;;;38.10;24.33;;;;;;;7.98;65.66;94119.84;4895114;29;20409;-77
2021/12/05 16:33:52;;;;;;;39.30;24.27;;;;;;;7.88;65.98;94111.88;4895008;29;20428;-77
2021/12/05 16:36:19;;;;;;;40.63;25.17;;;;;;;7.91;66.27;94135.50;4894049;29;20470;-77
2021/12/05 16:38:46;;;;;;;39.80;25.08;;;;;;;7.77;66.01;94114.28;4864246;29;20410;-77
2021/12/05 16:41:30;;;;;;;41.23;25.70;;;;;;;7.73;66.36;94120.16;4897623;29;20834;-77
2021/12/05 16:43:58;;;;;;;37.33;25.95;;;;;;;7.66;66.82;94130.66;4881866;29;20430;-77
2021/12/05 16:46:30;;;;;;;41.88;25.17;;;;;;;7.62;67.38;94129.53;4882102;29;20422;-78
2021/12/05 16:48:57;;;;;;;41.05;26.20;;;;;;;7.52;67.52;94119.00;4879724;29;20417;-77
2021/12/05 16:51:51;;;;;;;40.28;27.02;;;;;;;7.52;67.59;94119.00;4863816;29;20429;-78
2021/12/05 16:54:24;;;;;;;41.53;26.92;;;;;;;7.56;67.13;94122.69;4849521;29;20433;-78
2021/12/05 16:56:59;;;;;;;42.37;28.17;;;;;;;7.62;67.38;94132.09;4880745;29;20406;-78
2021/12/05 16:59:37;;;;;;;46.78;29.10;;;;;;;7.49;67.38;94133.19;4896276;29;20425;-78
2021/12/05 17:02:12;;;;;;;45.85;29.65;;;;;;;7.51;67.71;94135.53;4883402;29;20897;-78
2021/12/05 17:05:24;;;;;;;45.88;29.65;;;;;;;7.57;67.26;94132.00;4904159;29;20458;-78
2021/12/05 17:08:07;;;;;;;46.17;30.00;;;;;;;7.66;67.12;94143.59;4886661;29;20414;-78
2021/12/05 17:11:01;;;;;;;47.38;29.45;;;;;;;7.86;66.28;94142.41;4880679;29;20438;-78
2021/12/05 17:13:37;;;;;;;45.97;29.80;;;;;;;7.83;66.21;94128.91;4878782;29;20552;-78
2021/12/05 17:16:39;;;;;;;47.38;29.98;;;;;;;7.87;66.19;94143.97;4873067;29;20411;-82
2021/12/05 17:19:08;;;;;;;48.72;30.35;;;;;;;7.92;65.74;94141.47;4890779;29;20410;-82
2021/12/05 17:21:41;;;;;;;43.13;28.60;;;;;;;7.73;66.51;94139.06;4872184;29;20418;-83
2021/12/05 17:24:08;;;;;;;45.63;28.80;;;;;;;7.77;66.30;94122.03;4873152;29;20442;-81
2021/12/05 17:26:40;;;;;;;86.68;54.20;;;;;;;7.75;65.95;94139.59;4888138;29;20538;-82
2021/12/05 17:29:19;;;;;;;47.92;29.88;;;;;;;7.67;67.12;94134.81;4904019;29;20418;-81
2021/12/05 17:32:00;;;;;;;48.65;31.35;;;;;;;7.75;66.94;94120.72;4889994;29;20469;-82
2021/12/05 17:34:30;;;;;;;44.13;30.58;;;;;;;7.66;66.86;94133.25;4905983;29;20442;-82
2021/12/05 17:37:06;;;;;;;79.57;48.88;;;;;;;7.53;67.67;94151.59;4888695;29;20398;-82
2021/12/05 17:39:34;;;;;;;52.97;33.30;;;;;;;7.43;67.26;94143.63;4888997;29;20418;-82
2021/12/05 17:42:16;;;;;;;48.37;30.27;;;;;;;7.35;68.08;94157.72;4874115;29;20422;-81
2021/12/05 17:44:42;;;;;;;49.58;30.80;;;;;;;7.50;67.70;94154.66;4891307;29;20402;-81
2021/12/05 17:47:09;;;;;;;54.30;30.50;;;;;;;7.62;67.34;94157.97;4873140;29;20426;-82
2021/12/05 17:49:36;;;;;;;47.40;30.23;;;;;;;7.44;67.54;94153.75;4854562;29;20419;-82
2021/12/05 17:52:03;;;;;;;46.65;29.95;;;;;;;7.48;67.84;94152.28;4870428;29;20517;-82
2021/12/05 17:54:35;;;;;;;47.88;30.33;;;;;;;7.46;67.82;94148.34;4870364;29;20800;-81